Time;durP1;ratioP1;P1;durP2;ratioP2;P2;SDS_P1;SDS_P2;PMS_P1;PMS_P2;Temp;Humidity;BMP_temperature;BMP_pressure;BME280_temperature;BME280_humidity;BME280_pressure;Samples;Min_cycle;Max_cycle;Signal;HPM_P1;HPM_P2
2021/12/26 00:00:25;;;;;;;2.58;1.38;;;;;;;1.99;49.51;100816.97;4965746;28;123749;-64
2021/12/26 00:02:53;;;;;;;2.25;1.23;;;;;;;1.98;49.39;100815.25;4963716;28;114490;-64
2021/12/26 00:05:22;;;;;;;3.03;1.30;;;;;;;1.97;49.17;100808.28;4959724;28;114643;-64
2021/12/26 00:07:50;;;;;;;3.65;1.40;;;;;;;1.96;49.28;100814.41;4959283;28;124072;-64
2021/12/26 00:10:20;;;;;;;3.60;1.50;;;;;;;1.93;49.36;100817.91;4962157;28;123160;-64
2021/12/26 00:12:49;;;;;;;2.97;1.30;;;;;;;1.91;49.37;100813.59;4964148;28;114598;-64
2021/12/26 00:15:17;;;;;;;4.47;1.08;;;;;;;1.91;49.39;100808.34;4969895;28;113938;-64
2021/12/26 00:17:44;;;;;;;2.53;1.30;;;;;;;1.92;49.35;100820.53;4962201;28;124673;-64
2021/12/26 00:20:12;;;;;;;2.70;1.48;;;;;;;1.93;49.34;100817.03;4953236;28;122802;-64
2021/12/26 00:22:40;;;;;;;3.90;1.83;;;;;;;1.93;49.51;100811.81;4965368;28;114659;-64
2021/12/26 00:25:11;;;;;;;2.20;1.13;;;;;;;1.93;49.44;100806.59;4937266;28;112743;-64
2021/12/26 00:27:39;;;;;;;2.15;1.40;;;;;;;1.93;49.43;100806.59;4946298;28;123266;-64
2021/12/26 00:30:10;;;;;;;3.20;1.40;;;;;;;1.93;49.56;100806.59;4957394;28;124233;-64
2021/12/26 00:32:39;;;;;;;2.30;1.30;;;;;;;1.93;49.48;100801.38;4962277;28;113372;-64
2021/12/26 00:35:07;;;;;;;3.13;1.60;;;;;;;1.93;49.55;100796.16;4962918;28;114354;-64
2021/12/26 00:37:34;;;;;;;2.75;1.40;;;;;;;1.92;49.18;100795.28;4965335;28;124772;-64
2021/12/26 00:40:03;;;;;;;2.47;1.30;;;;;;;1.93;49.28;100796.16;4963929;28;123830;-64
2021/12/26 00:42:30;;;;;;;2.42;1.52;;;;;;;1.92;49.37;100791.78;4964846;28;115953;-64
2021/12/26 00:44:58;;;;;;;2.45;1.40;;;;;;;1.92;49.21;100790.06;4946557;28;113824;-64
2021/12/26 00:47:29;;;;;;;3.75;1.58;;;;;;;1.92;49.61;100795.28;4966184;28;124254;-64
2021/12/26 00:49:57;;;;;;;2.97;1.30;;;;;;;1.92;49.50;100797.00;4941773;28;122576;-64
2021/12/26 00:52:24;;;;;;;2.15;1.35;;;;;;;1.91;49.20;100795.31;4942312;28;113223;-63
2021/12/26 00:54:52;;;;;;;4.70;1.65;;;;;;;1.91;49.35;100783.09;4949363;28;113173;-64
2021/12/26 00:57:19;;;;;;;3.70;1.45;;;;;;;1.90;49.36;100783.09;4964184;28;122085;-65
2021/12/26 00:59:46;;;;;;;2.85;1.30;;;;;;;1.91;49.22;100783.09;4953587;28;123704;-64
2021/12/26 01:02:14;;;;;;;2.58;1.58;;;;;;;1.91;49.20;100784.84;4962223;28;114782;-64
2021/12/26 01:04:42;;;;;;;3.08;1.30;;;;;;;1.88;49.27;100787.50;4945757;28;113097;-64
2021/12/26 01:07:22;;;;;;;3.72;1.60;;;;;;;1.84;49.18;100780.56;4959787;28;124505;-64
2021/12/26 01:09:52;;;;;;;6.47;1.65;;;;;;;1.82;49.33;100782.34;4961306;28;123119;-64
2021/12/26 01:12:20;;;;;;;3.00;1.45;;;;;;;1.79;49.31;100792.78;4954347;28;113472;-64
2021/12/26 01:14:56;;;;;;;3.78;1.42;;;;;;;1.77;49.13;100790.19;4960492;28;113587;-64
2021/12/26 01:17:47;;;;;;;4.00;1.55;;;;;;;1.74;49.26;100790.25;4957142;28;124951;-64
2021/12/26 01:23:17;;;;;;;4.72;1.60;;;;;;;1.68;49.22;100796.38;4940795;28;114635;-64
2021/12/26 01:25:45;;;;;;;3.22;1.70;;;;;;;1.67;49.48;100794.66;4954185;28;113489;-64
2021/12/26 01:28:14;;;;;;;3.47;1.50;;;;;;;1.67;49.44;100797.25;4940761;28;123553;-64
2021/12/26 01:30:41;;;;;;;4.35;1.55;;;;;;;1.67;49.53;100799.88;4953835;28;123743;-64
2021/12/26 01:33:12;;;;;;;2.83;1.58;;;;;;;1.68;49.69;100799.00;4952868;28;115319;-64
2021/12/26 01:36:08;;;;;;;2.67;1.58;;;;;;;1.71;50.06;100801.59;4948569;28;115542;-64
2021/12/26 01:38:57;;;;;;;2.88;1.58;;;;;;;1.73;49.79;100798.94;4950935;28;124022;-64
2021/12/26 01:41:39;;;;;;;2.90;1.50;;;;;;;1.73;49.76;100799.84;4943328;28;123876;-64
2021/12/26 01:44:24;;;;;;;3.60;1.60;;;;;;;1.75;49.64;100795.47;4964072;28;115115;-64
2021/12/26 01:46:52;;;;;;;3.25;1.45;;;;;;;1.77;50.08;100799.78;4967326;28;113529;-64
2021/12/26 01:49:29;;;;;;;3.47;1.60;;;;;;;1.74;49.49;100785.88;4956865;28;123114;-64
2021/12/26 01:52:00;;;;;;;2.90;1.40;;;;;;;1.77;49.67;100794.56;4960294;28;123924;-64
2021/12/26 01:54:39;;;;;;;2.72;1.42;;;;;;;1.75;49.60;100798.06;4943343;28;113041;-64
2021/12/26 01:57:09;;;;;;;2.80;1.50;;;;;;;1.74;49.55;100796.31;4960621;28;114316;-64
2021/12/26 01:59:39;;;;;;;4.38;1.70;;;;;;;1.74;49.54;100791.09;4951583;28;124448;-64
2021/12/26 02:02:14;;;;;;;3.33;1.63;;;;;;;1.72;49.58;100790.25;4946572;28;126753;-64
2021/12/26 02:04:43;;;;;;;1.95;1.40;;;;;;;1.72;49.57;100798.09;4951283;28;113544;-64
2021/12/26 02:07:12;;;;;;;3.38;1.60;;;;;;;1.72;49.52;100792.88;4948464;28;114264;-64
2021/12/26 02:09:43;;;;;;;3.47;1.58;;;;;;;1.71;49.44;100791.16;4953143;28;124100;-64
2021/12/26 02:12:14;;;;;;;3.80;1.55;;;;;;;1.69;49.64;100782.44;4952573;28;123369;-64
2021/12/26 02:14:41;;;;;;;4.20;1.35;;;;;;;1.68;49.31;100791.16;4943243;28;113466;-64
2021/12/26 02:17:22;;;;;;;3.13;1.65;;;;;;;1.65;48.99;100779.88;4966348;28;113156;-64
2021/12/26 02:19:53;;;;;;;4.13;1.90;;;;;;;1.62;49.17;100775.56;4948954;28;123288;-64
2021/12/26 02:22:28;;;;;;;3.50;1.50;;;;;;;1.59;48.98;100766.91;4952445;28;123722;-63
2021/12/26 02:27:32;;;;;;;2.85;1.73;;;;;;;1.47;49.17;100754.81;4952722;28;114000;-64
2021/12/26 02:30:14;;;;;;;2.83;1.40;;;;;;;1.42;49.14;100756.63;4944540;28;123993;-64
2021/12/26 02:32:47;;;;;;;4.30;1.70;;;;;;;1.39;48.93;100751.41;4952094;28;123250;-63
2021/12/26 02:35:16;;;;;;;3.25;1.75;;;;;;;1.32;49.05;100751.47;4958096;28;114858;-64
2021/12/26 02:37:43;;;;;;;3.40;1.50;;;;;;;1.26;49.18;100756.75;4952316;28;112129;-64
2021/12/26 02:40:12;;;;;;;3.28;1.42;;;;;;;1.23;49.02;100746.34;4957421;28;123258;-64
2021/12/26 02:42:40;;;;;;;2.88;1.50;;;;;;;1.21;49.25;100757.66;4955605;28;123267;-64
2021/12/26 02:45:08;;;;;;;4.53;1.60;;;;;;;1.19;49.45;100759.41;4960236;28;96727;-64
2021/12/26 02:47:43;;;;;;;2.97;1.60;;;;;;;1.18;49.42;100763.75;4941280;28;113377;-64
2021/12/26 02:50:17;;;;;;;3.10;1.70;;;;;;;1.19;49.60;100764.59;4959413;28;123292;-64
2021/12/26 02:52:45;;;;;;;4.63;1.70;;;;;;;1.19;49.70;100765.50;4955456;28;122996;-64
2021/12/26 02:55:15;;;;;;;3.03;1.40;;;;;;;1.21;49.59;100763.75;4947340;28;114328;-64
2021/12/26 02:57:50;;;;;;;3.78;1.70;;;;;;;1.24;49.86;100763.69;4943445;28;113149;-63
2021/12/26 03:00:21;;;;;;;3.58;1.58;;;;;;;1.26;49.52;100755.84;4942941;28;123839;-64
2021/12/26 03:02:52;;;;;;;3.55;1.90;;;;;;;1.26;49.37;100756.75;4950124;28;122844;-64
2021/12/26 03:05:23;;;;;;;3.03;1.50;;;;;;;1.27;49.87;100757.59;4958708;28;114330;-64
2021/12/26 03:07:51;;;;;;;4.63;1.70;;;;;;;1.29;49.64;100756.72;4959518;28;113920;-64
2021/12/26 03:10:21;;;;;;;3.45;1.55;;;;;;;1.33;49.53;100749.72;4951247;28;123315;-64
2021/12/26 03:12:51;;;;;;;2.65;1.55;;;;;;;1.33;49.75;100747.97;4964516;28;124273;-65
2021/12/26 03:15:19;;;;;;;3.25;1.60;;;;;;;1.34;49.62;100759.28;4957929;28;115660;-65
2021/12/26 03:17:47;;;;;;;2.42;1.40;;;;;;;1.34;49.71;100754.06;4955270;28;114017;-64
2021/12/26 03:20:18;;;;;;;5.25;1.90;;;;;;;1.33;49.61;100763.63;4954348;28;123007;-65
2021/12/26 03:22:45;;;;;;;3.72;1.80;;;;;;;1.35;49.61;100761.88;4963244;28;124084;-66
2021/12/26 03:25:19;;;;;;;3.17;1.70;;;;;;;1.36;49.51;100765.38;4956563;28;114485;-65
2021/12/26 03:27:48;;;;;;;3.33;1.70;;;;;;;1.36;49.57;100758.38;4956256;28;113726;-65
2021/12/26 03:30:20;;;;;;;2.60;1.45;;;;;;;1.35;49.44;100756.66;4948887;28;123783;-65
2021/12/26 03:32:53;;;;;;;3.15;1.63;;;;;;;1.35;49.26;100751.44;4947898;28;123765;-65
2021/12/26 03:35:22;;;;;;;3.10;1.63;;;;;;;1.34;49.56;100754.94;4943832;28;113801;-65
2021/12/26 03:37:50;;;;;;;5.10;1.77;;;;;;;1.34;49.30;100754.94;4949694;28;112720;-65
2021/12/26 03:40:37;;;;;;;3.50;1.65;;;;;;;1.35;49.43;100743.59;4957124;28;124206;-65
2021/12/26 03:43:05;;;;;;;4.22;1.73;;;;;;;1.35;49.45;100751.44;4962535;28;123552;-65
2021/12/26 03:45:43;;;;;;;5.15;1.98;;;;;;;1.33;49.64;100742.75;4934552;28;113487;-65
2021/12/26 03:48:12;;;;;;;4.45;1.85;;;;;;;1.34;49.46;100739.28;4954905;28;113887;-65
2021/12/26 03:50:41;;;;;;;3.65;1.85;;;;;;;1.36;49.45;100747.09;4950652;28;123163;-65
2021/12/26 03:53:09;;;;;;;3.00;1.92;;;;;;;1.38;49.25;100741.88;4962605;28;123785;-65
2021/12/26 03:55:39;;;;;;;3.35;1.75;;;;;;;1.35;49.36;100735.78;4955153;28;113581;-65
2021/12/26 03:58:07;;;;;;;3.55;1.63;;;;;;;1.36;49.61;100732.28;4939565;28;113288;-65
2021/12/26 04:00:36;;;;;;;3.47;1.50;;;;;;;1.38;49.57;100739.25;4963750;28;124030;-64
2021/12/26 04:03:03;;;;;;;2.65;1.60;;;;;;;1.41;49.55;100731.38;4959689;28;123484;-65
2021/12/26 04:05:40;;;;;;;3.20;1.70;;;;;;;1.42;49.45;100727.91;4947856;28;114304;-64
2021/12/26 04:08:07;;;;;;;3.33;1.55;;;;;;;1.41;49.31;100723.56;4937176;28;114050;-64
2021/12/26 04:10:34;;;;;;;2.80;1.80;;;;;;;1.40;49.48;100721.84;4964212;28;124059;-64
2021/12/26 04:13:01;;;;;;;3.42;1.80;;;;;;;1.42;49.74;100727.91;4949239;28;123180;-64
2021/12/26 04:15:30;;;;;;;3.20;1.80;;;;;;;1.42;49.23;100722.69;4935280;28;113681;-65
2021/12/26 04:17:58;;;;;;;4.13;1.90;;;;;;;1.40;49.24;100721.84;4946003;28;113195;-64
2021/12/26 04:20:28;;;;;;;5.40;1.83;;;;;;;1.40;49.31;100732.28;4965659;28;123676;-65
2021/12/26 04:22:57;;;;;;;3.38;1.70;;;;;;;1.39;49.35;100735.75;4965022;28;123009;-64
2021/12/26 04:25:25;;;;;;;3.78;1.92;;;;;;;1.39;49.30;100730.53;4958424;28;114356;-65
2021/12/26 04:27:53;;;;;;;4.13;1.45;;;;;;;1.40;49.51;100727.06;4951719;28;113482;-64
2021/12/26 04:30:21;;;;;;;2.67;1.60;;;;;;;1.41;49.65;100723.56;4958287;28;122972;-64
2021/12/26 04:32:48;;;;;;;3.47;1.70;;;;;;;1.43;49.50;100727.00;4948572;28;123447;-64
2021/12/26 04:35:17;;;;;;;2.88;1.70;;;;;;;1.46;49.84;100713.94;4954891;28;113901;-64
2021/12/26 04:37:44;;;;;;;3.10;1.80;;;;;;;1.48;49.67;100709.56;4950732;28;113510;-64
2021/12/26 04:40:14;;;;;;;4.43;1.85;;;;;;;1.53;49.55;100713.00;4962689;28;124542;-64
2021/12/26 04:43:00;;;;;;;4.15;1.83;;;;;;;1.54;49.73;100701.69;4963141;28;124889;-64
2021/12/26 04:45:43;;;;;;;3.65;1.75;;;;;;;1.56;49.78;100707.75;4964498;28;113920;-64
2021/12/26 04:48:44;;;;;;;4.25;1.95;;;;;;;1.56;49.77;100705.13;4961113;28;114198;-64
2021/12/26 04:51:13;;;;;;;3.58;1.80;;;;;;;1.58;49.51;100710.34;4948155;28;123385;-63
2021/12/26 04:53:42;;;;;;;3.72;2.00;;;;;;;1.58;49.67;100705.97;4959515;28;123617;-64
2021/12/26 04:56:09;;;;;;;3.50;1.80;;;;;;;1.60;49.66;100703.34;4949678;28;114292;-64
2021/12/26 04:58:37;;;;;;;3.55;1.70;;;;;;;1.60;49.68;100693.81;4954319;28;114749;-64
2021/12/26 05:01:05;;;;;;;3.88;1.75;;;;;;;1.63;49.62;100704.19;4961302;28;124133;-63
2021/12/26 05:03:33;;;;;;;3.28;1.60;;;;;;;1.63;49.75;100704.19;4967748;28;123874;-64
2021/12/26 05:06:00;;;;;;;4.40;1.80;;;;;;;1.64;49.76;100705.94;4944223;28;113543;-63
2021/12/26 05:08:28;;;;;;;3.00;1.73;;;;;;;1.65;49.80;100707.66;4971480;28;113075;-64
2021/12/26 05:10:56;;;;;;;3.75;1.80;;;;;;;1.65;49.67;100702.44;4956896;28;122974;-63
2021/12/26 05:13:24;;;;;;;3.67;1.83;;;;;;;1.64;49.82;100697.22;4959266;28;123991;-63
2021/12/26 05:15:51;;;;;;;3.40;1.65;;;;;;;1.63;49.61;100693.75;4964491;28;114313;-63
2021/12/26 05:18:19;;;;;;;3.72;1.80;;;;;;;1.61;49.44;100699.88;4956232;28;112138;-64
2021/12/26 05:20:51;;;;;;;3.63;1.70;;;;;;;1.57;49.36;100693.81;4964562;28;123409;-64
2021/12/26 05:23:18;;;;;;;2.65;1.60;;;;;;;1.53;49.53;100687.78;4965237;28;123898;-64
2021/12/26 05:25:45;;;;;;;2.90;1.60;;;;;;;1.51;49.29;100688.69;4960226;28;114085;-64
2021/12/26 05:28:13;;;;;;;3.50;1.70;;;;;;;1.48;49.52;100678.25;4952877;28;112606;-63
2021/12/26 05:30:42;;;;;;;5.13;2.08;;;;;;;1.44;49.39;100687.88;4951131;28;123719;-63
2021/12/26 05:33:19;;;;;;;3.90;1.83;;;;;;;1.42;49.44;100683.56;4947711;28;126448;-64
2021/12/26 05:35:48;;;;;;;3.95;1.92;;;;;;;1.41;49.66;100679.19;4954222;28;113797;-63
2021/12/26 05:38:16;;;;;;;5.07;1.85;;;;;;;1.41;49.75;100687.03;4952233;28;113442;-63
2021/12/26 05:40:46;;;;;;;3.88;1.90;;;;;;;1.39;49.47;100679.22;4958214;28;123236;-64
2021/12/26 05:43:15;;;;;;;3.67;1.77;;;;;;;1.41;49.93;100681.81;4946461;28;122613;-63
2021/12/26 05:45:42;;;;;;;2.92;1.60;;;;;;;1.42;49.92;100678.34;4944943;28;113989;-64
2021/12/26 05:48:17;;;;;;;5.07;1.80;;;;;;;1.42;49.76;100678.34;4951175;28;114271;-63
2021/12/26 05:50:46;;;;;;;4.25;1.70;;;;;;;1.42;49.80;100680.94;4955566;28;123311;-63
2021/12/26 05:53:33;;;;;;;3.33;1.48;;;;;;;1.42;49.76;100678.34;4963571;28;124199;-64
2021/12/26 05:56:03;;;;;;;2.97;1.60;;;;;;;1.44;50.03;100676.56;4949053;28;113398;-63
2021/12/26 05:58:31;;;;;;;3.20;1.52;;;;;;;1.46;49.98;100680.03;4965381;28;113035;-63
2021/12/26 06:00:58;;;;;;;4.13;1.63;;;;;;;1.45;49.79;100673.94;4947572;28;123869;-63
2021/12/26 06:03:26;;;;;;;4.00;2.17;;;;;;;1.45;49.64;100675.66;4949801;28;123129;-63
2021/12/26 06:05:53;;;;;;;3.25;1.60;;;;;;;1.42;49.99;100673.13;4950503;28;113435;-63
2021/12/26 06:08:30;;;;;;;3.60;1.58;;;;;;;1.41;50.03;100666.16;4954379;28;116971;-64
2021/12/26 06:10:57;;;;;;;3.17;1.58;;;;;;;1.38;49.68;100668.81;4957686;28;123159;-63
2021/12/26 06:13:24;;;;;;;3.75;1.70;;;;;;;1.34;49.89;100666.22;4958804;28;124292;-63
2021/12/26 06:15:54;;;;;;;5.32;1.60;;;;;;;1.32;49.97;100667.97;4956764;28;113440;-64
2021/12/26 06:18:22;;;;;;;3.88;1.75;;;;;;;1.30;49.67;100674.97;4952932;28;113203;-64
2021/12/26 06:21:07;;;;;;;;;;;;;;;1.26;50.14;100673.28;4965325;28;124834;-64
2021/12/26 06:23:50;;;;;;;4.28;1.80;;;;;;;1.25;50.13;100674.13;4968321;28;124509;-64
2021/12/26 06:26:37;;;;;;;3.25;1.63;;;;;;;1.22;50.06;100674.16;4956849;28;115842;-65
2021/12/26 06:29:18;;;;;;;4.35;1.83;;;;;;;1.21;49.78;100674.19;4965999;28;113300;-64
2021/12/26 06:32:04;;;;;;;3.85;1.58;;;;;;;1.21;50.02;100674.19;4971661;28;124531;-64
2021/12/26 06:34:50;;;;;;;4.45;1.83;;;;;;;1.17;50.05;100669.00;4971896;28;124827;-64
2021/12/26 06:37:36;;;;;;;3.45;1.50;;;;;;;1.18;50.21;100677.66;4964580;28;117746;-64
2021/12/26 06:40:39;;;;;;;3.28;1.63;;;;;;;1.16;50.08;100676.81;4942361;28;117164;-64
2021/12/26 06:43:24;;;;;;;3.13;1.90;;;;;;;1.14;50.14;100673.38;4966339;28;124603;-64
2021/12/26 06:46:28;;;;;;;3.65;1.60;;;;;;;1.14;50.33;100669.00;4967201;28;123948;-64
2021/12/26 06:49:15;;;;;;;3.30;1.60;;;;;;;1.16;50.16;100666.41;4954500;28;114181;-64
2021/12/26 06:51:44;;;;;;;3.22;1.70;;;;;;;1.16;50.40;100661.19;4953412;28;113379;-64
2021/12/26 06:54:11;;;;;;;3.20;1.60;;;;;;;1.19;50.63;100663.78;4964617;28;123881;-64
2021/12/26 06:56:39;;;;;;;3.80;1.45;;;;;;;1.21;50.54;100659.41;4950223;28;123011;-65
2021/12/26 06:59:07;;;;;;;3.80;1.83;;;;;;;1.25;50.67;100661.09;4951659;28;113567;-64
2021/12/26 07:01:35;;;;;;;5.57;1.73;;;;;;;1.27;50.36;100667.16;4955837;28;113227;-64
2021/12/26 07:04:04;;;;;;;3.65;1.70;;;;;;;1.29;50.34;100662.78;4947310;28;123154;-64
2021/12/26 07:06:33;;;;;;;3.78;1.80;;;;;;;1.31;50.45;100665.38;4961007;28;124492;-64
2021/12/26 07:09:06;;;;;;;3.17;1.70;;;;;;;1.33;50.34;100664.47;4950281;28;117044;-64
2021/12/26 07:11:34;;;;;;;3.58;1.85;;;;;;;1.33;50.61;100659.25;4959119;28;113322;-64
2021/12/26 07:14:02;;;;;;;5.57;2.20;;;;;;;1.34;50.47;100665.38;4958723;28;123794;-64
2021/12/26 07:16:30;;;;;;;2.72;1.42;;;;;;;1.33;50.34;100664.47;4945421;28;122995;-63
2021/12/26 07:18:57;;;;;;;3.85;1.70;;;;;;;1.34;50.66;100666.22;4946098;28;113321;-63
2021/12/26 07:21:34;;;;;;;3.60;1.90;;;;;;;1.34;50.33;100666.22;4953479;28;116606;-63
2021/12/26 07:24:07;;;;;;;3.53;1.45;;;;;;;1.35;50.51;100667.94;4953797;28;123288;-63
2021/12/26 07:26:34;;;;;;;3.13;1.60;;;;;;;1.35;50.54;100665.31;4953707;28;122873;-63
2021/12/26 07:29:07;;;;;;;3.60;1.60;;;;;;;1.34;50.23;100655.78;4953597;28;114431;-63
2021/12/26 07:31:40;;;;;;;4.28;1.70;;;;;;;1.33;50.83;100659.25;4953934;28;116904;-63
2021/12/26 07:34:08;;;;;;;4.25;1.85;;;;;;;1.33;50.66;100661.88;4945496;28;123838;-64
2021/12/26 07:36:36;;;;;;;4.35;2.00;;;;;;;1.34;50.42;100655.78;4956096;28;124102;-63
2021/12/26 07:39:15;;;;;;;4.38;1.90;;;;;;;1.32;50.33;100662.78;4950207;28;116353;-63
2021/12/26 07:41:42;;;;;;;4.22;1.70;;;;;;;1.31;50.80;100650.59;4950110;28;114098;-64
2021/12/26 07:44:29;;;;;;;3.38;1.80;;;;;;;1.32;50.47;100657.53;4936806;28;124122;-64
2021/12/26 07:47:23;;;;;;;4.00;1.50;;;;;;;1.34;50.79;100650.56;4951521;28;125240;-64
2021/12/26 07:49:54;;;;;;;3.97;1.77;;;;;;;1.35;50.58;100651.44;4953542;28;113785;-64
2021/12/26 07:52:42;;;;;;;;;;;;;;;1.34;50.92;100650.56;4956612;28;114990;-64
2021/12/26 07:55:28;;;;;;;3.90;1.80;;;;;;;1.36;50.75;100650.56;4954363;28;125071;-64
2021/12/26 07:58:16;;;;;;;;;;;;;;;1.35;50.76;100656.63;4967085;28;124715;-64
2021/12/26 08:01:01;;;;;;;3.20;1.60;;;;;;;1.34;51.04;100650.56;4959647;28;115802;-63
2021/12/26 08:03:43;;;;;;;3.67;1.90;;;;;;;1.35;50.92;100657.50;4971043;28;113696;-63
2021/12/26 08:06:30;;;;;;;3.67;1.83;;;;;;;1.35;50.94;100652.28;4974431;28;124471;-64
2021/12/26 08:08:57;;;;;;;3.80;1.88;;;;;;;1.36;50.88;100648.81;4956715;28;123267;-64
2021/12/26 08:11:25;;;;;;;3.15;1.70;;;;;;;1.36;51.04;100643.59;4956344;28;113528;-63
2021/12/26 08:13:52;;;;;;;4.53;2.03;;;;;;;1.38;50.87;100650.56;4974119;28;114759;-63
2021/12/26 08:16:19;;;;;;;4.32;2.10;;;;;;;1.38;50.79;100661.00;4973481;28;123595;-63
2021/12/26 08:18:47;;;;;;;4.43;1.98;;;;;;;1.40;51.13;100659.22;4971189;28;124048;-64
2021/12/26 08:21:14;;;;;;;4.93;1.90;;;;;;;1.40;50.98;100661.84;4955601;28;115821;-63
2021/12/26 08:23:42;;;;;;;4.30;2.22;;;;;;;1.42;51.01;100652.25;4967211;28;114909;-63
2021/12/26 08:26:09;;;;;;;3.53;1.90;;;;;;;1.44;51.19;100660.91;4959106;28;124095;-63
2021/12/26 08:28:36;;;;;;;3.38;1.73;;;;;;;1.46;50.99;100659.16;4953875;28;124324;-63
2021/12/26 08:31:04;;;;;;;3.60;1.55;;;;;;;1.47;51.18;100660.88;4951469;28;114265;-64
2021/12/26 08:33:32;;;;;;;5.00;2.10;;;;;;;1.49;51.20;100659.13;4954870;28;113904;-63
2021/12/26 08:35:59;;;;;;;3.55;1.70;;;;;;;1.51;51.23;100662.59;4954648;28;124610;-64
2021/12/26 08:38:26;;;;;;;3.67;1.98;;;;;;;1.55;51.01;100659.06;4951653;28;123819;-63
2021/12/26 08:40:55;;;;;;;3.10;1.65;;;;;;;1.58;51.36;100664.22;4936424;28;113420;-63
2021/12/26 08:43:22;;;;;;;7.13;2.47;;;;;;;1.60;51.35;100667.72;4954119;28;114321;-65
2021/12/26 08:45:50;;;;;;;3.97;2.13;;;;;;;1.63;51.28;100667.66;4951078;28;123894;-64
2021/12/26 08:48:17;;;;;;;4.07;1.92;;;;;;;1.65;51.04;100665.88;4951183;28;124401;-64
2021/12/26 08:50:45;;;;;;;2.83;1.80;;;;;;;1.67;51.11;100671.94;4951523;28;114521;-64
2021/12/26 08:53:12;;;;;;;4.18;1.90;;;;;;;1.68;51.25;100660.63;4954288;28;114024;-64
2021/12/26 08:55:40;;;;;;;6.35;2.10;;;;;;;1.69;51.13;100657.13;4951362;28;124124;-65
2021/12/26 08:58:07;;;;;;;3.72;1.88;;;;;;;1.70;51.45;100664.09;4953751;28;123893;-65
2021/12/26 09:00:36;;;;;;;4.30;2.00;;;;;;;1.73;51.34;100664.06;4950815;28;114397;-64
2021/12/26 09:03:04;;;;;;;5.15;2.15;;;;;;;1.77;51.18;100664.00;4954125;28;114079;-64
2021/12/26 09:05:32;;;;;;;4.95;2.28;;;;;;;1.78;51.33;100665.75;4952558;28;123995;-64
2021/12/26 09:07:59;;;;;;;3.97;2.10;;;;;;;1.81;51.05;100665.69;4950959;28;124568;-63
2021/12/26 09:10:26;;;;;;;3.80;2.00;;;;;;;1.84;51.09;100676.13;4950211;28;115260;-62
2021/12/26 09:12:53;;;;;;;5.35;2.17;;;;;;;1.89;51.44;100674.34;4954080;28;115030;-62
2021/12/26 09:15:22;;;;;;;3.60;2.03;;;;;;;1.90;51.21;100676.94;4951038;28;125411;-63
2021/12/26 09:17:49;;;;;;;5.55;1.95;;;;;;;1.91;51.37;100683.00;4960214;28;123913;-62
2021/12/26 09:20:18;;;;;;;4.32;2.00;;;;;;;1.95;51.25;100669.03;4971625;28;114613;-63
2021/12/26 09:22:46;;;;;;;3.47;2.00;;;;;;;1.99;51.36;100670.72;4972969;28;114485;-63
2021/12/26 09:25:13;;;;;;;4.82;2.13;;;;;;;2.05;51.58;100681.06;4970179;28;124356;-63
2021/12/26 09:27:40;;;;;;;6.53;2.28;;;;;;;2.13;51.34;100678.38;4970215;28;123776;-63
2021/12/26 09:30:09;;;;;;;3.92;1.90;;;;;;;2.19;51.56;100682.66;4970013;28;114659;-63
2021/12/26 09:32:36;;;;;;;4.10;1.88;;;;;;;2.25;51.53;100682.56;4971889;28;113942;-63
2021/12/26 09:35:05;;;;;;;3.63;1.83;;;;;;;2.31;51.62;100682.50;4968606;28;124107;-63
2021/12/26 09:37:33;;;;;;;4.32;2.25;;;;;;;2.35;51.46;100684.16;4966564;28;123758;-63
2021/12/26 09:40:02;;;;;;;5.13;2.22;;;;;;;2.41;51.50;100689.34;4963313;28;115504;-64
2021/12/26 09:42:29;;;;;;;4.38;2.20;;;;;;;2.45;51.40;100690.13;4961266;28;113755;-64
2021/12/26 09:44:58;;;;;;;4.20;2.25;;;;;;;2.49;51.50;100682.25;4958984;28;123821;-63
2021/12/26 09:47:28;;;;;;;3.22;1.75;;;;;;;2.56;51.29;100677.75;4963236;28;124348;-63
2021/12/26 09:49:55;;;;;;;4.70;2.28;;;;;;;2.60;51.42;100670.75;4961939;28;114513;-63
2021/12/26 09:52:23;;;;;;;5.57;2.47;;;;;;;2.66;51.41;100668.06;4968046;28;114633;-64
2021/12/26 09:54:50;;;;;;;3.75;2.38;;;;;;;2.72;51.41;100665.34;4970330;28;124427;-63
2021/12/26 09:57:18;;;;;;;5.13;2.38;;;;;;;2.77;51.58;100666.13;4969634;28;123945;-63
2021/12/26 09:59:48;;;;;;;4.13;2.25;;;;;;;2.81;51.31;100662.59;4968640;28;115669;-64
2021/12/26 10:02:18;;;;;;;3.40;2.10;;;;;;;2.87;51.26;100652.00;4971778;28;115163;-63
2021/12/26 10:04:50;;;;;;;5.13;2.25;;;;;;;2.92;51.21;100660.66;4969552;28;123970;-64
2021/12/26 10:07:23;;;;;;;5.07;2.50;;;;;;;2.96;51.29;100655.34;4969206;28;124191;-64
2021/12/26 10:09:52;;;;;;;4.68;2.30;;;;;;;2.98;51.00;100649.22;4968239;28;114212;-63
2021/12/26 10:12:20;;;;;;;4.93;2.47;;;;;;;3.01;51.12;100650.91;4970541;28;113681;-63
2021/12/26 10:14:51;;;;;;;6.68;2.35;;;;;;;3.04;51.24;100643.03;4969499;28;123850;-63
2021/12/26 10:17:23;;;;;;;5.22;2.47;;;;;;;3.07;51.23;100633.38;4969764;28;123814;-64
2021/12/26 10:19:53;;;;;;;5.80;2.70;;;;;;;3.09;51.08;100642.06;4969985;28;114311;-63
2021/12/26 10:22:28;;;;;;;5.07;2.15;;;;;;;3.11;51.06;100628.97;4970780;28;114599;-63
2021/12/26 10:24:57;;;;;;;4.05;2.17;;;;;;;3.15;51.17;100625.38;4969179;28;124158;-63
2021/12/26 10:27:31;;;;;;;5.80;2.65;;;;;;;3.19;51.30;100626.19;4969184;28;123976;-63
2021/12/26 10:30:05;;;;;;;4.78;2.45;;;;;;;3.22;51.33;100627.00;4968820;28;114256;-64
2021/12/26 10:32:37;;;;;;;4.75;2.47;;;;;;;3.25;51.17;100616.47;4971213;28;114412;-62
2021/12/26 10:35:12;;;;;;;4.20;2.13;;;;;;;3.29;51.31;100625.97;4965505;28;124608;-62
2021/12/26 10:37:52;;;;;;;5.38;2.28;;;;;;;3.31;51.26;100621.59;4967783;28;124189;-62
2021/12/26 10:40:28;;;;;;;5.07;2.38;;;;;;;3.37;51.20;100609.28;4950366;28;113649;-62
2021/12/26 10:43:16;;;;;;;5.63;2.90;;;;;;;3.42;51.10;100610.91;4959236;28;114083;-62
2021/12/26 10:45:43;;;;;;;6.13;2.95;;;;;;;3.45;51.38;100610.00;4959980;28;124770;-62
2021/12/26 10:48:11;;;;;;;6.85;2.72;;;;;;;3.48;51.08;100597.72;4964807;28;125297;-62
2021/12/26 10:50:40;;;;;;;4.82;2.67;;;;;;;3.51;51.11;100596.78;4959938;28;115093;-62
2021/12/26 10:53:13;;;;;;;5.93;2.80;;;;;;;3.57;51.24;100586.19;4961655;28;114875;-63
2021/12/26 10:55:51;;;;;;;4.45;2.67;;;;;;;3.60;51.21;100588.75;4956373;28;125172;-62
2021/12/26 10:58:21;;;;;;;4.80;2.92;;;;;;;3.63;51.17;100591.28;4962443;28;124640;-63
2021/12/26 11:00:51;;;;;;;6.32;2.88;;;;;;;3.65;51.16;100584.25;4962235;28;113125;-63
2021/12/26 11:03:24;;;;;;;6.85;3.08;;;;;;;3.68;51.32;100589.44;4970464;28;114043;-62
2021/12/26 11:05:55;;;;;;;5.25;2.80;;;;;;;3.74;51.38;100592.84;4963660;28;125219;-62
2021/12/26 11:08:29;;;;;;;5.80;2.80;;;;;;;3.81;51.57;100591.81;4960095;28;124287;-62
2021/12/26 11:11:07;;;;;;;7.65;3.00;;;;;;;3.87;51.47;100589.06;4965403;28;113291;-62
2021/12/26 11:13:34;;;;;;;6.75;3.60;;;;;;;3.93;51.23;100583.69;4971594;28;114253;-62
2021/12/26 11:16:07;;;;;;;6.28;3.10;;;;;;;3.97;51.26;100585.34;4960033;28;124141;-63
2021/12/26 11:18:36;;;;;;;6.88;3.10;;;;;;;4.01;51.31;100571.28;4956425;28;124334;-62
2021/12/26 11:21:07;;;;;;;6.28;3.22;;;;;;;4.05;51.21;100572.94;4964097;28;115006;-63
2021/12/26 11:23:38;;;;;;;7.35;3.50;;;;;;;4.09;51.27;100574.59;4970308;28;113965;-63
2021/12/26 11:26:08;;;;;;;6.25;3.60;;;;;;;4.10;51.19;100559.72;4970289;28;123108;-62
2021/12/26 11:28:39;;;;;;;6.43;3.47;;;;;;;4.12;51.19;100557.06;4961731;28;124974;-63
2021/12/26 11:31:10;;;;;;;6.90;3.28;;;;;;;4.16;51.24;100561.34;4966976;28;114009;-62
2021/12/26 11:33:39;;;;;;;8.10;3.28;;;;;;;4.20;51.52;100560.34;4957317;28;112936;-62
2021/12/26 11:36:10;;;;;;;7.03;3.42;;;;;;;4.23;51.43;100555.06;4962311;28;124451;-62
2021/12/26 11:38:38;;;;;;;7.13;3.35;;;;;;;4.28;51.57;100553.19;4952659;28;124082;-62
2021/12/26 11:41:41;;;;;;;6.15;3.05;;;;;;;4.32;51.36;100554.84;4961898;28;116458;-62
2021/12/26 11:44:37;;;;;;;7.22;3.58;;;;;;;4.34;51.55;100557.44;4971028;28;115621;-62
2021/12/26 11:48:01;;;;;;;6.05;3.13;;;;;;;4.35;51.38;100549.53;4955243;28;124491;-62
2021/12/26 11:51:21;;;;;;;6.35;3.40;;;;;;;4.39;51.42;100551.19;4951239;28;125091;-63
2021/12/26 11:54:09;;;;;;;6.95;3.50;;;;;;;4.38;51.44;100544.19;4966801;28;114511;-62